Overview Statistics Trail Chart Weather Telemetry Raw packets
 

This is the latest recevied weather packets stored in our database for station/object DG4CB-13. If no packets are shown the sender has not sent any weather packets the latest 10 day(s).

<< 13 14 15 16 17 18 19 >>
Time Temp. Humidity Pressure Rain* Wind** Luminosity Snow
1788195599 16.67° C 82% 1013.6 hPa - - - -
1788194999 16.67° C 82% 1013.4 hPa - - - -
1788194399 16.67° C 85% 1013.4 hPa - - - -
1788193799 16.11° C 84% 1013.2 hPa - - - -
1788193199 16.11° C 80% 1013.3 hPa - - - -
1788192599 16.11° C 77% 1013.5 hPa - - - -
1788192013 16.67° C 71% 1012.9 hPa - - - -
1788191399 19.44° C 67% 1012.7 hPa - - - -
1788190799 20° C 61% 1012 hPa - - - -
1788190199 20.56° C 60% 1012.1 hPa - - - -
1788189599 20.56° C 59% 1012.3 hPa - - - -
1788188999 20.56° C 60% 1012.5 hPa - - - -
1788188399 20° C 57% 1012.5 hPa - - - -
1788187799 21.11° C 56% 1012.4 hPa - - - -
1788187200 22.22° C 54% 1012.1 hPa - - - -
1788186599 22.22° C 54% 1011.9 hPa - - - -
1788185999 22.22° C 51% 1011.5 hPa - - - -
1788185399 22.78° C 46% 1011.4 hPa - - - -
1788184800 23.33° C 46% 1011.4 hPa - - - -
1788184199 23.33° C 45% 1011.3 hPa - - - -
1788183599 23.33° C 46% 1011.5 hPa - - - -
1788182999 22.78° C 47% 1011.6 hPa - - - -
1788182399 22.22° C 50% 1011.7 hPa - - - -
1788181799 22.22° C 50% 1011.8 hPa - - - -
1788181199 22.22° C 49% 1011.8 hPa - - - -

* Rain since midnight (hover to see other rain measurements)
** Current wind speed in m/s (hover to see current wind gust speed)